sensor_id;sensor_type;location;lat;lon;timestamp;temperature;humidity
17039;DHT22;8636;55.750;13.202;2024-03-29T00:01:01;6.10;99.90
17039;DHT22;8636;55.750;13.202;2024-03-29T00:03:30;6.10;99.90
17039;DHT22;8636;55.750;13.202;2024-03-29T00:06:16;6.10;99.90
17039;DHT22;8636;55.750;13.202;2024-03-29T00:08:42;6.00;99.90
17039;DHT22;8636;55.750;13.202;2024-03-29T00:11:14;6.10;99.90
17039;DHT22;8636;55.750;13.202;2024-03-29T00:13:40;6.00;99.90
17039;DHT22;8636;55.750;13.202;2024-03-29T00:16:14;6.00;99.90
17039;DHT22;8636;55.750;13.202;2024-03-29T00:18:40;5.80;99.90
17039;DHT22;8636;55.750;13.202;2024-03-29T00:21:13;5.60;99.90
17039;DHT22;8636;55.750;13.202;2024-03-29T00:23:40;5.50;99.90
17039;DHT22;8636;55.750;13.202;2024-03-29T00:26:13;5.40;99.90
17039;DHT22;8636;55.750;13.202;2024-03-29T00:28:39;5.40;99.90
17039;DHT22;8636;55.750;13.202;2024-03-29T00:31:13;5.40;99.90
17039;DHT22;8636;55.750;13.202;2024-03-29T00:33:39;5.40;99.90
17039;DHT22;8636;55.750;13.202;2024-03-29T00:36:12;5.30;99.90
17039;DHT22;8636;55.750;13.202;2024-03-29T00:38:38;5.30;99.90
17039;DHT22;8636;55.750;13.202;2024-03-29T00:41:11;5.30;99.90
17039;DHT22;8636;55.750;13.202;2024-03-29T00:43:37;5.20;99.90
17039;DHT22;8636;55.750;13.202;2024-03-29T00:46:10;5.20;99.90
17039;DHT22;8636;55.750;13.202;2024-03-29T00:48:37;5.20;99.90
17039;DHT22;8636;55.750;13.202;2024-03-29T00:51:10;5.30;99.90
17039;DHT22;8636;55.750;13.202;2024-03-29T00:53:36;5.20;99.90
17039;DHT22;8636;55.750;13.202;2024-03-29T00:56:08;5.30;99.90
17039;DHT22;8636;55.750;13.202;2024-03-29T00:58:34;5.30;99.90
17039;DHT22;8636;55.750;13.202;2024-03-29T01:01:07;5.30;99.90
17039;DHT22;8636;55.750;13.202;2024-03-29T01:03:33;5.30;99.90
17039;DHT22;8636;55.750;13.202;2024-03-29T01:06:07;5.30;99.90
17039;DHT22;8636;55.750;13.202;2024-03-29T01:08:40;5.30;99.90
17039;DHT22;8636;55.750;13.202;2024-03-29T01:11:13;5.40;99.90
17039;DHT22;8636;55.750;13.202;2024-03-29T01:13:39;5.40;99.90
17039;DHT22;8636;55.750;13.202;2024-03-29T01:16:11;5.40;99.90
17039;DHT22;8636;55.750;13.202;2024-03-29T01:18:37;5.40;99.90
17039;DHT22;8636;55.750;13.202;2024-03-29T01:21:12;5.40;99.90
17039;DHT22;8636;55.750;13.202;2024-03-29T01:23:38;5.40;99.90
17039;DHT22;8636;55.750;13.202;2024-03-29T01:26:04;5.40;99.90
17039;DHT22;8636;55.750;13.202;2024-03-29T01:28:37;5.40;99.90
17039;DHT22;8636;55.750;13.202;2024-03-29T01:31:04;5.40;99.90
17039;DHT22;8636;55.750;13.202;2024-03-29T01:33:37;5.40;99.90
17039;DHT22;8636;55.750;13.202;2024-03-29T01:36:03;5.40;99.90
17039;DHT22;8636;55.750;13.202;2024-03-29T01:38:37;5.40;99.90
17039;DHT22;8636;55.750;13.202;2024-03-29T01:41:03;5.40;99.90
17039;DHT22;8636;55.750;13.202;2024-03-29T01:43:36;5.40;99.90
17039;DHT22;8636;55.750;13.202;2024-03-29T01:46:04;5.40;99.90
17039;DHT22;8636;55.750;13.202;2024-03-29T01:48:40;5.40;99.90
17039;DHT22;8636;55.750;13.202;2024-03-29T01:51:09;5.40;99.90
17039;DHT22;8636;55.750;13.202;2024-03-29T01:53:47;5.40;99.90
17039;DHT22;8636;55.750;13.202;2024-03-29T01:56:14;5.50;99.90
17039;DHT22;8636;55.750;13.202;2024-03-29T01:58:50;5.50;99.90
17039;DHT22;8636;55.750;13.202;2024-03-29T02:03:59;5.50;99.90
17039;DHT22;8636;55.750;13.202;2024-03-29T02:06:32;5.50;99.90
17039;DHT22;8636;55.750;13.202;2024-03-29T02:09:07;5.50;99.90
17039;DHT22;8636;55.750;13.202;2024-03-29T02:11:34;5.50;99.90
17039;DHT22;8636;55.750;13.202;2024-03-29T02:14:08;5.60;99.90
17039;DHT22;8636;55.750;13.202;2024-03-29T02:16:35;5.60;99.90
17039;DHT22;8636;55.750;13.202;2024-03-29T02:19:10;5.60;99.90
17039;DHT22;8636;55.750;13.202;2024-03-29T02:21:39;5.60;99.90
17039;DHT22;8636;55.750;13.202;2024-03-29T02:24:15;5.70;99.90
17039;DHT22;8636;55.750;13.202;2024-03-29T02:26:43;5.60;99.90
17039;DHT22;8636;55.750;13.202;2024-03-29T02:29:25;5.60;99.90
17039;DHT22;8636;55.750;13.202;2024-03-29T02:31:51;5.60;99.90
17039;DHT22;8636;55.750;13.202;2024-03-29T02:34:25;5.60;99.90
17039;DHT22;8636;55.750;13.202;2024-03-29T02:36:52;5.70;99.90
17039;DHT22;8636;55.750;13.202;2024-03-29T02:39:28;5.70;99.90
17039;DHT22;8636;55.750;13.202;2024-03-29T02:41:54;5.70;99.90
17039;DHT22;8636;55.750;13.202;2024-03-29T02:44:28;5.70;99.90
17039;DHT22;8636;55.750;13.202;2024-03-29T02:46:55;5.80;99.90
17039;DHT22;8636;55.750;13.202;2024-03-29T02:49:28;5.80;99.90
17039;DHT22;8636;55.750;13.202;2024-03-29T02:51:54;5.80;99.90
17039;DHT22;8636;55.750;13.202;2024-03-29T02:54:28;5.80;99.90
17039;DHT22;8636;55.750;13.202;2024-03-29T02:56:54;5.90;99.90
17039;DHT22;8636;55.750;13.202;2024-03-29T02:59:28;5.90;99.90
17039;DHT22;8636;55.750;13.202;2024-03-29T03:01:54;5.90;99.90
17039;DHT22;8636;55.750;13.202;2024-03-29T03:04:41;5.80;99.90
17039;DHT22;8636;55.750;13.202;2024-03-29T03:07:06;5.90;99.90
17039;DHT22;8636;55.750;13.202;2024-03-29T03:09:55;5.80;99.90
17039;DHT22;8636;55.750;13.202;2024-03-29T03:12:40;5.80;99.90
17039;DHT22;8636;55.750;13.202;2024-03-29T03:15:13;5.80;99.90
17039;DHT22;8636;55.750;13.202;2024-03-29T03:17:40;5.70;99.90
17039;DHT22;8636;55.750;13.202;2024-03-29T03:20:13;5.70;99.90
17039;DHT22;8636;55.750;13.202;2024-03-29T03:22:41;5.70;99.90
17039;DHT22;8636;55.750;13.202;2024-03-29T03:25:15;5.70;99.90
17039;DHT22;8636;55.750;13.202;2024-03-29T03:27:41;5.70;99.90
17039;DHT22;8636;55.750;13.202;2024-03-29T03:30:15;5.70;99.90
17039;DHT22;8636;55.750;13.202;2024-03-29T03:32:41;5.60;99.90
17039;DHT22;8636;55.750;13.202;2024-03-29T03:35:08;5.60;99.90
17039;DHT22;8636;55.750;13.202;2024-03-29T03:37:41;5.50;99.90
17039;DHT22;8636;55.750;13.202;2024-03-29T03:40:08;5.50;99.90
17039;DHT22;8636;55.750;13.202;2024-03-29T03:42:42;5.40;99.90
17039;DHT22;8636;55.750;13.202;2024-03-29T03:45:09;5.50;99.90
17039;DHT22;8636;55.750;13.202;2024-03-29T03:47:42;5.40;99.90
17039;DHT22;8636;55.750;13.202;2024-03-29T03:50:09;5.40;99.90
17039;DHT22;8636;55.750;13.202;2024-03-29T03:52:42;5.40;99.90
17039;DHT22;8636;55.750;13.202;2024-03-29T03:55:09;5.30;99.90
17039;DHT22;8636;55.750;13.202;2024-03-29T03:57:42;5.30;99.90
17039;DHT22;8636;55.750;13.202;2024-03-29T04:00:10;5.40;99.90
17039;DHT22;8636;55.750;13.202;2024-03-29T04:02:47;5.40;99.90
17039;DHT22;8636;55.750;13.202;2024-03-29T04:05:22;5.40;99.90
17039;DHT22;8636;55.750;13.202;2024-03-29T04:07:55;5.30;99.90
17039;DHT22;8636;55.750;13.202;2024-03-29T04:10:22;5.30;99.90
17039;DHT22;8636;55.750;13.202;2024-03-29T04:12:55;5.20;99.90
17039;DHT22;8636;55.750;13.202;2024-03-29T04:15:29;5.20;99.90
17039;DHT22;8636;55.750;13.202;2024-03-29T04:18:02;5.20;99.90
17039;DHT22;8636;55.750;13.202;2024-03-29T04:20:29;5.10;99.90
17039;DHT22;8636;55.750;13.202;2024-03-29T04:23:04;5.10;99.90
17039;DHT22;8636;55.750;13.202;2024-03-29T04:25:30;5.10;99.90
17039;DHT22;8636;55.750;13.202;2024-03-29T04:28:05;5.00;99.90
17039;DHT22;8636;55.750;13.202;2024-03-29T04:30:32;5.00;99.90
17039;DHT22;8636;55.750;13.202;2024-03-29T04:33:04;4.90;99.90
17039;DHT22;8636;55.750;13.202;2024-03-29T04:35:31;5.00;99.90
17039;DHT22;8636;55.750;13.202;2024-03-29T04:38:04;4.90;99.90
17039;DHT22;8636;55.750;13.202;2024-03-29T04:40:31;4.90;99.90
17039;DHT22;8636;55.750;13.202;2024-03-29T04:43:05;4.90;99.90
17039;DHT22;8636;55.750;13.202;2024-03-29T04:45:32;4.90;99.90
17039;DHT22;8636;55.750;13.202;2024-03-29T04:48:06;4.80;99.90
17039;DHT22;8636;55.750;13.202;2024-03-29T04:50:34;4.90;99.90
17039;DHT22;8636;55.750;13.202;2024-03-29T04:53:07;4.80;99.90
17039;DHT22;8636;55.750;13.202;2024-03-29T04:55:34;4.90;99.90
17039;DHT22;8636;55.750;13.202;2024-03-29T04:58:09;5.00;99.90
17039;DHT22;8636;55.750;13.202;2024-03-29T05:00:36;5.00;99.90
17039;DHT22;8636;55.750;13.202;2024-03-29T05:03:17;4.90;99.90
17039;DHT22;8636;55.750;13.202;2024-03-29T05:05:52;4.90;99.90
17039;DHT22;8636;55.750;13.202;2024-03-29T05:08:32;4.90;99.90
17039;DHT22;8636;55.750;13.202;2024-03-29T05:10:59;5.00;99.90
17039;DHT22;8636;55.750;13.202;2024-03-29T05:13:33;4.90;99.90
17039;DHT22;8636;55.750;13.202;2024-03-29T05:16:00;5.00;99.90
17039;DHT22;8636;55.750;13.202;2024-03-29T05:18:34;5.00;99.90
17039;DHT22;8636;55.750;13.202;2024-03-29T05:21:01;5.00;99.90
17039;DHT22;8636;55.750;13.202;2024-03-29T05:23:28;5.00;99.90
17039;DHT22;8636;55.750;13.202;2024-03-29T05:26:01;5.10;99.90
17039;DHT22;8636;55.750;13.202;2024-03-29T05:28:28;5.10;99.90
17039;DHT22;8636;55.750;13.202;2024-03-29T05:31:11;5.20;99.90
17039;DHT22;8636;55.750;13.202;2024-03-29T05:33:38;5.20;99.90
17039;DHT22;8636;55.750;13.202;2024-03-29T05:36:12;5.40;99.90
17039;DHT22;8636;55.750;13.202;2024-03-29T05:38:39;6.80;99.90
17039;DHT22;8636;55.750;13.202;2024-03-29T05:41:13;8.10;99.90
17039;DHT22;8636;55.750;13.202;2024-03-29T05:43:40;8.70;99.90
17039;DHT22;8636;55.750;13.202;2024-03-29T05:46:16;9.30;99.90
17039;DHT22;8636;55.750;13.202;2024-03-29T05:48:44;9.40;99.90
17039;DHT22;8636;55.750;13.202;2024-03-29T05:51:17;9.00;99.90
17039;DHT22;8636;55.750;13.202;2024-03-29T05:53:44;9.00;99.90
17039;DHT22;8636;55.750;13.202;2024-03-29T05:56:17;8.10;99.90
17039;DHT22;8636;55.750;13.202;2024-03-29T05:58:44;7.70;99.90
17039;DHT22;8636;55.750;13.202;2024-03-29T06:01:19;8.10;99.90
17039;DHT22;8636;55.750;13.202;2024-03-29T06:03:54;8.70;99.90
17039;DHT22;8636;55.750;13.202;2024-03-29T06:06:28;9.00;99.90
17039;DHT22;8636;55.750;13.202;2024-03-29T06:08:55;9.10;99.90
17039;DHT22;8636;55.750;13.202;2024-03-29T06:11:28;9.00;99.90
17039;DHT22;8636;55.750;13.202;2024-03-29T06:13:55;8.90;99.90
17039;DHT22;8636;55.750;13.202;2024-03-29T06:16:47;8.40;99.90
17039;DHT22;8636;55.750;13.202;2024-03-29T06:19:31;7.60;99.90
17039;DHT22;8636;55.750;13.202;2024-03-29T06:22:05;7.30;99.90
17039;DHT22;8636;55.750;13.202;2024-03-29T06:24:34;7.20;99.90
17039;DHT22;8636;55.750;13.202;2024-03-29T06:27:08;7.30;99.90
17039;DHT22;8636;55.750;13.202;2024-03-29T06:29:35;7.30;99.90
17039;DHT22;8636;55.750;13.202;2024-03-29T06:32:09;7.40;99.90
17039;DHT22;8636;55.750;13.202;2024-03-29T06:34:36;7.50;99.90
17039;DHT22;8636;55.750;13.202;2024-03-29T06:37:10;7.60;99.90
17039;DHT22;8636;55.750;13.202;2024-03-29T06:39:37;7.50;99.90
17039;DHT22;8636;55.750;13.202;2024-03-29T06:42:10;7.60;99.90
17039;DHT22;8636;55.750;13.202;2024-03-29T06:44:37;7.70;99.90
17039;DHT22;8636;55.750;13.202;2024-03-29T06:47:12;7.80;99.90
17039;DHT22;8636;55.750;13.202;2024-03-29T06:49:39;7.90;99.90
17039;DHT22;8636;55.750;13.202;2024-03-29T06:52:13;8.00;99.90
17039;DHT22;8636;55.750;13.202;2024-03-29T06:54:40;8.00;99.90
17039;DHT22;8636;55.750;13.202;2024-03-29T06:57:13;8.10;99.90
17039;DHT22;8636;55.750;13.202;2024-03-29T06:59:43;8.20;99.90
17039;DHT22;8636;55.750;13.202;2024-03-29T07:02:17;8.30;99.90
17039;DHT22;8636;55.750;13.202;2024-03-29T07:04:58;8.30;99.90
17039;DHT22;8636;55.750;13.202;2024-03-29T07:07:37;8.40;99.90
17039;DHT22;8636;55.750;13.202;2024-03-29T07:10:06;8.40;99.90
17039;DHT22;8636;55.750;13.202;2024-03-29T07:12:40;8.50;99.90
17039;DHT22;8636;55.750;13.202;2024-03-29T07:15:07;8.50;99.90
17039;DHT22;8636;55.750;13.202;2024-03-29T07:17:42;8.60;99.90
17039;DHT22;8636;55.750;13.202;2024-03-29T07:20:10;8.80;99.90
17039;DHT22;8636;55.750;13.202;2024-03-29T07:22:43;8.80;99.90
17039;DHT22;8636;55.750;13.202;2024-03-29T07:25:11;8.90;99.90
17039;DHT22;8636;55.750;13.202;2024-03-29T07:27:44;8.90;99.90
17039;DHT22;8636;55.750;13.202;2024-03-29T07:30:12;9.10;99.90
17039;DHT22;8636;55.750;13.202;2024-03-29T07:32:47;9.00;99.90
17039;DHT22;8636;55.750;13.202;2024-03-29T07:35:14;9.10;99.90
17039;DHT22;8636;55.750;13.202;2024-03-29T07:37:49;9.20;99.90
17039;DHT22;8636;55.750;13.202;2024-03-29T07:40:19;9.40;99.90
17039;DHT22;8636;55.750;13.202;2024-03-29T07:42:52;9.40;99.90
17039;DHT22;8636;55.750;13.202;2024-03-29T07:45:19;9.40;99.90
17039;DHT22;8636;55.750;13.202;2024-03-29T07:47:48;9.50;99.90
17039;DHT22;8636;55.750;13.202;2024-03-29T07:50:24;9.50;99.90
17039;DHT22;8636;55.750;13.202;2024-03-29T07:52:51;9.50;99.90
17039;DHT22;8636;55.750;13.202;2024-03-29T07:55:25;9.60;99.90
17039;DHT22;8636;55.750;13.202;2024-03-29T07:57:52;9.90;99.90
17039;DHT22;8636;55.750;13.202;2024-03-29T08:00:25;9.80;99.90
17039;DHT22;8636;55.750;13.202;2024-03-29T08:02:56;9.80;99.90
17039;DHT22;8636;55.750;13.202;2024-03-29T08:05:29;9.90;99.90
17039;DHT22;8636;55.750;13.202;2024-03-29T08:07:56;10.00;99.90
17039;DHT22;8636;55.750;13.202;2024-03-29T08:10:30;10.10;99.90
17039;DHT22;8636;55.750;13.202;2024-03-29T08:12:57;10.20;99.90
17039;DHT22;8636;55.750;13.202;2024-03-29T08:15:33;10.10;99.90
17039;DHT22;8636;55.750;13.202;2024-03-29T08:18:01;10.10;99.90
17039;DHT22;8636;55.750;13.202;2024-03-29T08:20:35;10.30;99.90
17039;DHT22;8636;55.750;13.202;2024-03-29T08:23:02;10.60;99.90
17039;DHT22;8636;55.750;13.202;2024-03-29T08:25:35;10.30;99.90
17039;DHT22;8636;55.750;13.202;2024-03-29T08:28:02;10.20;99.90
17039;DHT22;8636;55.750;13.202;2024-03-29T08:30:36;10.20;99.90
17039;DHT22;8636;55.750;13.202;2024-03-29T08:33:05;10.40;99.90
17039;DHT22;8636;55.750;13.202;2024-03-29T08:35:32;10.50;99.90
17039;DHT22;8636;55.750;13.202;2024-03-29T08:38:06;10.80;99.90
17039;DHT22;8636;55.750;13.202;2024-03-29T08:40:33;10.60;99.90
17039;DHT22;8636;55.750;13.202;2024-03-29T08:43:08;10.70;99.90
17039;DHT22;8636;55.750;13.202;2024-03-29T08:45:35;10.40;99.90
17039;DHT22;8636;55.750;13.202;2024-03-29T08:48:13;10.50;99.90
17039;DHT22;8636;55.750;13.202;2024-03-29T08:50:40;10.50;99.90
17039;DHT22;8636;55.750;13.202;2024-03-29T08:53:14;10.60;99.90
17039;DHT22;8636;55.750;13.202;2024-03-29T08:55:41;10.60;99.90
17039;DHT22;8636;55.750;13.202;2024-03-29T08:58:14;10.60;99.90
17039;DHT22;8636;55.750;13.202;2024-03-29T09:00:41;10.50;99.90
17039;DHT22;8636;55.750;13.202;2024-03-29T09:03:15;10.50;99.90
17039;DHT22;8636;55.750;13.202;2024-03-29T09:05:49;10.40;99.90
17039;DHT22;8636;55.750;13.202;2024-03-29T09:08:23;10.50;99.90
17039;DHT22;8636;55.750;13.202;2024-03-29T09:10:50;10.50;99.90
17039;DHT22;8636;55.750;13.202;2024-03-29T09:13:24;10.30;99.90
17039;DHT22;8636;55.750;13.202;2024-03-29T09:15:51;10.40;99.90
17039;DHT22;8636;55.750;13.202;2024-03-29T09:18:26;10.60;99.90
17039;DHT22;8636;55.750;13.202;2024-03-29T09:20:56;10.80;99.90
17039;DHT22;8636;55.750;13.202;2024-03-29T09:23:33;10.80;99.90
17039;DHT22;8636;55.750;13.202;2024-03-29T09:26:00;10.70;99.90
17039;DHT22;8636;55.750;13.202;2024-03-29T09:28:37;10.80;99.90
17039;DHT22;8636;55.750;13.202;2024-03-29T09:31:05;10.80;99.90
17039;DHT22;8636;55.750;13.202;2024-03-29T09:33:40;10.90;99.90
17039;DHT22;8636;55.750;13.202;2024-03-29T09:36:07;11.10;99.90
17039;DHT22;8636;55.750;13.202;2024-03-29T09:38:43;11.30;99.90
17039;DHT22;8636;55.750;13.202;2024-03-29T09:41:13;11.70;99.90
17039;DHT22;8636;55.750;13.202;2024-03-29T09:43:48;11.60;99.90
17039;DHT22;8636;55.750;13.202;2024-03-29T09:46:16;11.80;99.90
17039;DHT22;8636;55.750;13.202;2024-03-29T09:48:53;11.80;99.90
17039;DHT22;8636;55.750;13.202;2024-03-29T09:51:21;11.80;99.90
17039;DHT22;8636;55.750;13.202;2024-03-29T09:53:57;11.70;99.90
17039;DHT22;8636;55.750;13.202;2024-03-29T09:56:25;11.40;99.90
17039;DHT22;8636;55.750;13.202;2024-03-29T09:58:59;11.30;99.90
17039;DHT22;8636;55.750;13.202;2024-03-29T10:01:27;11.50;99.90
17039;DHT22;8636;55.750;13.202;2024-03-29T10:04:09;11.40;99.90
17039;DHT22;8636;55.750;13.202;2024-03-29T10:06:51;11.00;99.90
17039;DHT22;8636;55.750;13.202;2024-03-29T10:09:25;10.60;99.90
17039;DHT22;8636;55.750;13.202;2024-03-29T10:11:55;10.60;99.90
17039;DHT22;8636;55.750;13.202;2024-03-29T10:14:30;10.90;99.90
17039;DHT22;8636;55.750;13.202;2024-03-29T10:16:57;10.40;99.90
17039;DHT22;8636;55.750;13.202;2024-03-29T10:19:32;10.40;99.90
17039;DHT22;8636;55.750;13.202;2024-03-29T10:22:05;10.70;99.90
17039;DHT22;8636;55.750;13.202;2024-03-29T10:24:39;11.00;99.90
17039;DHT22;8636;55.750;13.202;2024-03-29T10:27:06;10.90;99.90
17039;DHT22;8636;55.750;13.202;2024-03-29T10:29:40;10.90;99.90
17039;DHT22;8636;55.750;13.202;2024-03-29T10:32:07;11.00;99.90
17039;DHT22;8636;55.750;13.202;2024-03-29T10:34:42;11.10;99.90
17039;DHT22;8636;55.750;13.202;2024-03-29T10:37:09;10.80;99.90
17039;DHT22;8636;55.750;13.202;2024-03-29T10:39:43;10.90;99.90
17039;DHT22;8636;55.750;13.202;2024-03-29T10:42:11;10.70;99.90
17039;DHT22;8636;55.750;13.202;2024-03-29T10:44:44;11.00;99.90
17039;DHT22;8636;55.750;13.202;2024-03-29T10:47:17;11.20;99.90
17039;DHT22;8636;55.750;13.202;2024-03-29T10:49:53;11.20;99.90
17039;DHT22;8636;55.750;13.202;2024-03-29T10:52:21;11.30;99.90
17039;DHT22;8636;55.750;13.202;2024-03-29T10:54:54;11.50;99.90
17039;DHT22;8636;55.750;13.202;2024-03-29T10:57:23;11.50;99.90
17039;DHT22;8636;55.750;13.202;2024-03-29T10:59:59;11.20;99.90
17039;DHT22;8636;55.750;13.202;2024-03-29T11:02:48;11.30;99.90
17039;DHT22;8636;55.750;13.202;2024-03-29T11:05:24;11.20;99.90
17039;DHT22;8636;55.750;13.202;2024-03-29T11:07:59;11.40;99.90
17039;DHT22;8636;55.750;13.202;2024-03-29T11:10:36;11.50;99.90
17039;DHT22;8636;55.750;13.202;2024-03-29T11:13:10;11.70;99.90
17039;DHT22;8636;55.750;13.202;2024-03-29T11:15:48;12.00;99.90
17039;DHT22;8636;55.750;13.202;2024-03-29T11:18:17;12.20;99.90
17039;DHT22;8636;55.750;13.202;2024-03-29T11:20:53;12.40;99.90
17039;DHT22;8636;55.750;13.202;2024-03-29T11:23:21;12.30;99.90
17039;DHT22;8636;55.750;13.202;2024-03-29T11:25:55;12.10;99.90
17039;DHT22;8636;55.750;13.202;2024-03-29T11:28:25;12.10;99.90
17039;DHT22;8636;55.750;13.202;2024-03-29T11:31:02;11.50;99.90
17039;DHT22;8636;55.750;13.202;2024-03-29T11:33:31;11.60;99.90
17039;DHT22;8636;55.750;13.202;2024-03-29T11:36:11;12.00;99.90
17039;DHT22;8636;55.750;13.202;2024-03-29T11:38:39;12.30;99.90
17039;DHT22;8636;55.750;13.202;2024-03-29T11:41:17;12.00;99.90
17039;DHT22;8636;55.750;13.202;2024-03-29T11:43:44;11.80;99.90
17039;DHT22;8636;55.750;13.202;2024-03-29T11:46:18;11.70;99.90
17039;DHT22;8636;55.750;13.202;2024-03-29T11:48:46;11.80;99.90
17039;DHT22;8636;55.750;13.202;2024-03-29T11:51:18;11.80;99.90
17039;DHT22;8636;55.750;13.202;2024-03-29T11:53:53;11.70;99.90
17039;DHT22;8636;55.750;13.202;2024-03-29T11:56:20;11.50;99.90
17039;DHT22;8636;55.750;13.202;2024-03-29T11:58:54;11.50;99.90
17039;DHT22;8636;55.750;13.202;2024-03-29T12:01:25;11.30;99.90
17039;DHT22;8636;55.750;13.202;2024-03-29T12:04:06;11.30;99.90
17039;DHT22;8636;55.750;13.202;2024-03-29T12:06:36;11.00;99.90
17039;DHT22;8636;55.750;13.202;2024-03-29T12:09:10;10.90;99.90
17039;DHT22;8636;55.750;13.202;2024-03-29T12:11:37;10.70;99.90
17039;DHT22;8636;55.750;13.202;2024-03-29T12:14:12;10.60;99.90
17039;DHT22;8636;55.750;13.202;2024-03-29T12:16:43;10.80;99.90
17039;DHT22;8636;55.750;13.202;2024-03-29T12:19:22;10.80;99.90
17039;DHT22;8636;55.750;13.202;2024-03-29T12:21:51;11.00;99.90
17039;DHT22;8636;55.750;13.202;2024-03-29T12:24:25;11.10;99.90
17039;DHT22;8636;55.750;13.202;2024-03-29T12:26:52;11.20;99.90
17039;DHT22;8636;55.750;13.202;2024-03-29T12:29:26;11.00;99.90
17039;DHT22;8636;55.750;13.202;2024-03-29T12:31:58;10.90;99.90
17039;DHT22;8636;55.750;13.202;2024-03-29T12:34:31;10.60;99.90
17039;DHT22;8636;55.750;13.202;2024-03-29T12:36:59;10.50;99.90
17039;DHT22;8636;55.750;13.202;2024-03-29T12:39:33;10.40;99.90
17039;DHT22;8636;55.750;13.202;2024-03-29T12:42:01;10.30;99.90
17039;DHT22;8636;55.750;13.202;2024-03-29T12:44:35;10.00;99.90
17039;DHT22;8636;55.750;13.202;2024-03-29T12:47:09;9.90;99.90
17039;DHT22;8636;55.750;13.202;2024-03-29T12:49:43;10.00;99.90
17039;DHT22;8636;55.750;13.202;2024-03-29T12:52:12;9.90;99.90
17039;DHT22;8636;55.750;13.202;2024-03-29T12:54:45;10.00;99.90
17039;DHT22;8636;55.750;13.202;2024-03-29T12:57:12;9.90;99.90
17039;DHT22;8636;55.750;13.202;2024-03-29T12:59:45;9.90;99.90
17039;DHT22;8636;55.750;13.202;2024-03-29T13:02:13;9.80;99.90
17039;DHT22;8636;55.750;13.202;2024-03-29T13:04:54;9.60;99.90
17039;DHT22;8636;55.750;13.202;2024-03-29T13:07:23;9.50;99.90
17039;DHT22;8636;55.750;13.202;2024-03-29T13:10:04;9.40;99.90
17039;DHT22;8636;55.750;13.202;2024-03-29T13:12:36;9.40;99.90
17039;DHT22;8636;55.750;13.202;2024-03-29T13:15:21;9.40;99.90
17039;DHT22;8636;55.750;13.202;2024-03-29T13:17:52;9.30;99.90
17039;DHT22;8636;55.750;13.202;2024-03-29T13:20:25;9.30;99.90
17039;DHT22;8636;55.750;13.202;2024-03-29T13:22:53;9.10;99.90
17039;DHT22;8636;55.750;13.202;2024-03-29T13:25:27;9.10;99.90
17039;DHT22;8636;55.750;13.202;2024-03-29T13:27:54;9.10;99.90
17039;DHT22;8636;55.750;13.202;2024-03-29T13:30:28;9.10;99.90
17039;DHT22;8636;55.750;13.202;2024-03-29T13:32:55;9.10;99.90
17039;DHT22;8636;55.750;13.202;2024-03-29T13:35:29;9.20;99.90
17039;DHT22;8636;55.750;13.202;2024-03-29T13:37:58;9.10;99.90
17039;DHT22;8636;55.750;13.202;2024-03-29T13:40:31;9.10;99.90
17039;DHT22;8636;55.750;13.202;2024-03-29T13:42:59;9.00;99.90
17039;DHT22;8636;55.750;13.202;2024-03-29T13:45:33;8.90;99.90
17039;DHT22;8636;55.750;13.202;2024-03-29T13:48:01;8.90;99.90
17039;DHT22;8636;55.750;13.202;2024-03-29T13:50:34;8.90;99.90
17039;DHT22;8636;55.750;13.202;2024-03-29T13:53:03;8.90;99.90
17039;DHT22;8636;55.750;13.202;2024-03-29T13:55:36;8.90;99.90
17039;DHT22;8636;55.750;13.202;2024-03-29T13:58:03;8.90;99.90
17039;DHT22;8636;55.750;13.202;2024-03-29T14:00:37;8.90;99.90
17039;DHT22;8636;55.750;13.202;2024-03-29T14:03:04;8.90;99.90
17039;DHT22;8636;55.750;13.202;2024-03-29T14:05:52;9.00;99.90
17039;DHT22;8636;55.750;13.202;2024-03-29T14:08:20;9.10;99.90
17039;DHT22;8636;55.750;13.202;2024-03-29T14:10:54;9.20;99.90
17039;DHT22;8636;55.750;13.202;2024-03-29T14:13:21;9.10;99.90
17039;DHT22;8636;55.750;13.202;2024-03-29T14:15:48;9.00;99.90
17039;DHT22;8636;55.750;13.202;2024-03-29T14:18:21;9.00;99.90
17039;DHT22;8636;55.750;13.202;2024-03-29T14:20:49;9.00;99.90
17039;DHT22;8636;55.750;13.202;2024-03-29T14:23:24;9.10;99.90
17039;DHT22;8636;55.750;13.202;2024-03-29T14:25:51;8.90;99.90
17039;DHT22;8636;55.750;13.202;2024-03-29T14:28:25;8.80;99.90
17039;DHT22;8636;55.750;13.202;2024-03-29T14:30:52;8.80;99.90
17039;DHT22;8636;55.750;13.202;2024-03-29T14:33:25;8.80;99.90
17039;DHT22;8636;55.750;13.202;2024-03-29T14:35:52;8.80;99.90
17039;DHT22;8636;55.750;13.202;2024-03-29T14:38:27;8.70;99.90
17039;DHT22;8636;55.750;13.202;2024-03-29T14:40:55;8.70;99.90
17039;DHT22;8636;55.750;13.202;2024-03-29T14:43:28;8.70;99.90
17039;DHT22;8636;55.750;13.202;2024-03-29T14:45:55;8.60;99.90
17039;DHT22;8636;55.750;13.202;2024-03-29T14:48:29;8.60;99.90
17039;DHT22;8636;55.750;13.202;2024-03-29T14:50:56;8.50;99.90
17039;DHT22;8636;55.750;13.202;2024-03-29T14:53:33;8.50;99.90
17039;DHT22;8636;55.750;13.202;2024-03-29T14:56:00;8.50;99.90
17039;DHT22;8636;55.750;13.202;2024-03-29T14:58:34;8.40;99.90
17039;DHT22;8636;55.750;13.202;2024-03-29T15:01:02;8.30;99.90
17039;DHT22;8636;55.750;13.202;2024-03-29T15:03:36;8.30;99.90
17039;DHT22;8636;55.750;13.202;2024-03-29T15:06:10;8.20;99.90
17039;DHT22;8636;55.750;13.202;2024-03-29T15:08:44;8.10;99.90
17039;DHT22;8636;55.750;13.202;2024-03-29T15:11:11;8.10;99.90
17039;DHT22;8636;55.750;13.202;2024-03-29T15:13:45;8.10;99.90
17039;DHT22;8636;55.750;13.202;2024-03-29T15:16:12;8.10;99.90
17039;DHT22;8636;55.750;13.202;2024-03-29T15:18:46;8.00;99.90
17039;DHT22;8636;55.750;13.202;2024-03-29T15:21:13;8.00;99.90
17039;DHT22;8636;55.750;13.202;2024-03-29T15:23:47;7.90;99.90
17039;DHT22;8636;55.750;13.202;2024-03-29T15:26:14;7.90;99.90
17039;DHT22;8636;55.750;13.202;2024-03-29T15:28:48;7.80;99.90
17039;DHT22;8636;55.750;13.202;2024-03-29T15:31:34;7.80;99.90
17039;DHT22;8636;55.750;13.202;2024-03-29T15:34:08;7.80;99.90
17039;DHT22;8636;55.750;13.202;2024-03-29T15:36:35;7.80;99.90
17039;DHT22;8636;55.750;13.202;2024-03-29T15:39:10;7.80;99.90
17039;DHT22;8636;55.750;13.202;2024-03-29T15:41:40;7.80;99.90
17039;DHT22;8636;55.750;13.202;2024-03-29T15:44:15;7.70;99.90
17039;DHT22;8636;55.750;13.202;2024-03-29T15:46:43;7.80;99.90
17039;DHT22;8636;55.750;13.202;2024-03-29T15:49:17;7.80;99.90
17039;DHT22;8636;55.750;13.202;2024-03-29T15:51:44;7.80;99.90
17039;DHT22;8636;55.750;13.202;2024-03-29T15:54:19;7.80;99.90
17039;DHT22;8636;55.750;13.202;2024-03-29T15:56:48;7.80;99.90
17039;DHT22;8636;55.750;13.202;2024-03-29T15:59:15;7.70;99.90
17039;DHT22;8636;55.750;13.202;2024-03-29T16:01:49;7.80;99.90
17039;DHT22;8636;55.750;13.202;2024-03-29T16:04:21;7.70;99.90
17039;DHT22;8636;55.750;13.202;2024-03-29T16:07:01;7.70;99.90
17039;DHT22;8636;55.750;13.202;2024-03-29T16:09:32;7.80;99.90
17039;DHT22;8636;55.750;13.202;2024-03-29T16:12:06;7.70;99.90